Details From TJSJ - San Juan - Luis Munoz Marin Intl
To MTPP - Toussaint Louverture Intl
Flight Number -
Tags Real Generated
Created
Modified
Stats Distance 358 nm / 664 km
Max Altitude 0 ft / 0 m
Waypoints 3
Social Downloads 3
Likes 0
Share VATSIM

Download

Looking for another format? Having issues loading an existing format? Contact us
Advertisement - Login to hide

Notes

Generated

Route

TJSJ R1523 MTPP

ID Type Via Altitude Latitude Longitude Leg Dist Tot Dist Heading (true) Name
O TJSJ APT - 0 ft / 0 m 18.43356˚ -66.01373˚ - 0 nm - -
R1523 FIX - 0 ft / 0 m 18.57933˚ -72.30692˚ 358 nm 358 nm 272° / 270° -
O MTPP APT - 0 ft / 0 m 18.57933˚ -72.30692˚ 0 nm 358 nm 0° / 180° -

Altitude Profile

Advertisement - Login to hide

Weather


0- 5 10 15 20 25 30 35+ Temperature / ° C

Clouds and Precipitation
Forecast for 2018-05-23 12:00 UTC. Updated 4 hours ago

Ground ~20,000 ft ~40,000 ft Winds

TJSJ

Details ICAO TJSJ (SJU)
Name San Juan - Luis Munoz Marin Intl
Region USA (Puerto Rico)
Timezone America/Puerto_Rico (UTC-4.0)
Stats Elevation 9 ft / 3 m (AMSL)
Location 18.438777° -66.002018°
Runways 2
Magnetic Variation 13.242° W

METAR

TJSJ 231456Z 00000KT 10SM -RA FEW026 SCT037 SCT070 27/23 A3011

Decode

TAF

TAF TJSJ 231130Z 2312/2412 11007KT P6SM FEW030 FM231400 07016KT P6SM FEW025 SCT035 FM231600 07019G25KT P6SM VCSH SCT030 BKN050 FM232300 09011KT P6SM SCT030

Decode

Departure Runways

ID Width Length Bearing (true) Bearing (mag) Surface Threshold Offset Overrun Length
08 200 ft / 61 m 9,781 ft / 2,981 m 66.87° 80.11° Asphalt 0 ft / 0 m 200 ft / 61 m
10 151 ft / 46 m 8,007 ft / 2,440 m 90.14° 103.38° Concrete 0 ft / 0 m 200 ft / 61 m
26 200 ft / 61 m 9,781 ft / 2,981 m 246.88° 260.12° Asphalt 0 ft / 0 m 230 ft / 70 m
28 151 ft / 46 m 8,007 ft / 2,440 m 270.15° 283.39° Concrete 0 ft / 0 m 200 ft / 61 m

MTPP

Details ICAO MTPP (PAP)
Name TOUSSAINT LOUVERTURE INTL
Region Haiti
Timezone America/Port-au-Prince (UTC-4.0)
Stats Elevation 122 ft / 37 m (AMSL)
Location 18.580051° -72.292540°
Runways 1
Magnetic Variation 10.230° W

METAR

MTPP 231400Z 09010G20KT 9999 FEW025 SCT210 30/21 Q1016 A3000

Decode

TAF

TAF MTPP 231100Z 2312/2412 11007KT 9000 FEW022 FM231400 09015KT 9999 FEW026 TEMPO 2318/2400 18008KT FEW024CB SCT050 BECMG 2404/2408 12010KT 7000 FEW020

Decode

Destination Runways

ID Width Length Bearing (true) Bearing (mag) Surface Threshold Offset Overrun Length
10 141 ft / 43 m 9,963 ft / 3,037 m 86.96° 97.19° Asphalt 0 ft / 0 m 0 ft / 0 m
28 141 ft / 43 m 9,963 ft / 3,037 m 266.97° 277.20° Asphalt 0 ft / 0 m 0 ft / 0 m

Approach Navaids

Runway Type Ident Frequency Range Bearing (true) Bearing (mag) Slope Elevation
10 Localiser IMG 111.50 MHz 18 nm / 33 km 87.00° 97.23° - 121 ft / 37 m (AMSL)
10 Glidescope IMG 111.50 MHz 10 nm / 19 km 73.67° 83.90° 3.00° 122 ft / 37 m (AMSL)
10 DME IMG 111.50 MHz 18 nm / 33 km - - - 121 ft / 37 m (AMSL)

Popular Alternatives